Brinkley, AR

8:21 AM CDT on April 01, 2015 (GMT -0500)
Stuttgart Municipal | | Change Station
CLOSE
Current Station
Airport
Location: Stuttgart,
Elevation: 223 ft
Nearby Weather Stations
Active Advisory: Flood Warning Active Notice: Record Report

Elev 223 ft 34.60 °N, 91.57 °W | Updated 6 minutes ago

Mostly Cloudy
Mostly Cloudy
63 °F
Feels Like 63 °F
N
7
Wind Variable Wind from SSE

Today
High -- | Low -- °F
--% Chance of Precip.
Yesterday
High -- | Low -- °F
Precip. -- in
6:51 AM 7:25 PM
Waxing Gibbous, 92% visible
Pressure 29.99 in
Visibility 6.0 miles
Clouds Clear
Dew Point 59 °F
Humidity 88%
Rainfall 0.00 in
Snow Depth Not available.
UV 1 out of 12
Pollen 10.50 out of 12
Air Quality Not available.
Flu Activity Not available.
METAR KSGT 011315Z AUTO 15006KT 6SM CLR 17/15 A2999 RMK AO1

More Conditions Fewer Conditions

Pressure 29.99 in
Visibility 6.0 miles
Clouds Clear
Dew Point 59 °F
Humidity 88%
Rainfall 0.00 in
Snow Depth Not available.
UV 1 out of 12
Pollen 10.50 out of 12
Air Quality Not available.
Flu Activity Not available.
METAR KSGT 011315Z AUTO 15006KT 6SM CLR 17/15 A2999 RMK AO1

More Conditions Fewer Conditions

10-Day Weather Forecast

Almanac

Astronomy

Apr. 01, 2015 Rise Set
Actual Time
Civil Twilight
Nautical Twilight
Astronomical Twilight
Moon
Length of Visible Light
Length of Day
Tomorrow will be .
, % of the Moon is Illuminated

Today's Extremes

State Highs State Lows

Community

WunderPhotos

Upload Photos

1,809,953 photos uploaded!

WunderBlogs® & News

Nearby

Air Quality

  Air Quality AQ Index Pollutant
Not available.

Snow Depth

Station Depth Elevation

Earthquake Activity

City Distance Mag. Time & Date
Minimum magnitude displayed is 2.5.

Coastal Water Temperatures

Place Temperature

Stations

Nearby Weather Stations

Station Location Temp. Windchill Dew Point Humidity Wind Precip. Elev Updated Type
                   
Flood Warning
Statement as of 8:46 PM CDT on March 31, 2015

The Flood Warning continues for
the White River at Clarendon.
* Until further notice... or until the warning is cancelled.
* At 8:00 PM Tuesday the stage was 28.3 feet.
* Minor flooding is occurring and minor flooding is forecast.
* Flood stage is 26.0 feet.
* Forecast... the river will continue a slow fall to near 28.1 feet
by Thursday morning.
* Impacts at 26.0 feet... river flows in many side channels and creates
islands between the river and sloughs and creeks. Flooding of cropland
and Timber is occurring. Portions of the National wildlife Refuge
downstream of Clarendon flooding.





             Fld observed forecast 7 am
location stg stg day time Wed Thu Fri Sat sun

Lower White River
Clarendon 26 28.3 Tue 08 PM 28.2 28.1 27.9 27.8 27.6




Lat... Lon 3435 9119 3449 9132 3466 9139 3472 9129
3455 9120 3442 9108